createdAt,value
2022-10-17T00:00:14.809Z,1.00
2022-10-17T00:02:44.694Z,0.90
2022-10-17T00:05:14.722Z,1.00
2022-10-17T00:07:44.747Z,0.82
2022-10-17T00:10:14.675Z,1.13
2022-10-17T00:15:30.198Z,1.15
2022-10-17T00:18:00.161Z,1.10
2022-10-17T00:20:32.164Z,0.95
2022-10-17T00:23:02.236Z,0.77
2022-10-17T00:25:32.334Z,1.45
2022-10-17T00:28:02.290Z,0.93
2022-10-17T00:30:34.564Z,0.77
2022-10-17T00:33:04.485Z,0.95
2022-10-17T00:35:34.449Z,0.70
2022-10-17T00:38:04.369Z,0.90
2022-10-17T00:40:34.332Z,0.95
2022-10-17T00:43:04.278Z,0.85
2022-10-17T00:45:34.582Z,1.58
2022-10-17T00:48:08.144Z,0.90
2022-10-17T00:50:39.268Z,0.88
2022-10-17T00:53:10.511Z,0.75
2022-10-17T00:55:45.208Z,1.20
2022-10-17T00:58:15.238Z,0.73
2022-10-17T01:00:46.397Z,0.90
2022-10-17T01:03:16.536Z,0.85
2022-10-17T01:05:46.614Z,1.05
2022-10-17T01:08:16.650Z,0.93
2022-10-17T01:10:52.745Z,0.98
2022-10-17T02:14:08.214Z,0.70
2022-10-17T02:16:42.401Z,0.80
2022-10-17T02:19:27.972Z,1.85
2022-10-17T02:22:16.017Z,1.50
2022-10-17T02:24:50.117Z,1.00
2022-10-17T02:27:30.501Z,1.20
2022-10-17T02:30:03.864Z,0.88
2022-10-17T02:32:38.339Z,0.80
2022-10-17T02:35:10.620Z,0.90
2022-10-17T02:37:41.680Z,0.82
2022-10-17T02:40:12.839Z,0.80
2022-10-17T02:42:45.864Z,0.82
2022-10-17T02:45:16.945Z,0.90
2022-10-17T02:47:55.855Z,0.80
2022-10-17T02:50:30.113Z,1.55
2022-10-17T02:53:02.972Z,0.80
2022-10-17T02:55:37.511Z,0.80
2022-10-17T02:58:10.636Z,0.95
2022-10-17T03:04:01.508Z,0.80
2022-10-17T03:06:31.456Z,0.57
2022-10-17T03:09:01.414Z,0.77
2022-10-17T03:11:31.423Z,0.93
2022-10-17T05:11:27.856Z,0.80
2022-10-17T05:14:02.098Z,0.70
2022-10-17T05:16:32.685Z,1.00
2022-10-17T05:19:02.697Z,0.60
2022-10-17T05:24:02.893Z,0.73
2022-10-17T05:26:32.995Z,1.00
2022-10-17T05:29:07.013Z,0.50
2022-10-17T05:31:37.124Z,0.80
2022-10-17T05:34:09.100Z,0.95
2022-10-17T05:36:42.018Z,0.90
2022-10-17T05:39:12.382Z,0.70
2022-10-17T05:41:42.278Z,0.93
2022-10-17T05:44:12.147Z,0.85
2022-10-17T05:46:42.341Z,0.68
2022-10-17T05:49:19.680Z,0.70
2022-10-17T05:52:02.389Z,0.60
2022-10-17T05:54:33.340Z,0.70
2022-10-17T05:57:04.329Z,0.75
2022-10-17T05:59:34.374Z,0.55
2022-10-17T06:02:04.324Z,0.70
2022-10-17T06:04:34.265Z,0.80
2022-10-17T06:07:05.381Z,0.65
2022-10-17T06:09:35.711Z,0.50
2022-10-17T08:09:19.600Z,0.70
2022-10-17T08:11:50.633Z,0.60
2022-10-17T08:14:20.994Z,0.65
2022-10-17T08:16:50.961Z,0.77
2022-10-17T08:19:21.026Z,0.60
2022-10-17T08:21:52.122Z,0.70
2022-10-17T08:24:22.063Z,0.88
2022-10-17T08:26:52.028Z,0.75
2022-10-17T08:29:22.391Z,0.70
2022-10-17T08:31:56.224Z,0.77
2022-10-17T08:34:30.998Z,0.60
2022-10-17T08:37:00.950Z,0.60
2022-10-17T08:39:31.231Z,0.60
2022-10-17T08:42:19.301Z,0.70
2022-10-17T08:44:55.414Z,0.80
2022-10-17T08:50:00.253Z,0.60
2022-10-17T08:52:43.187Z,0.82
2022-10-17T08:55:31.043Z,0.50
2022-10-17T08:58:01.801Z,0.60
2022-10-17T09:00:33.546Z,0.63
2022-10-17T09:03:09.811Z,0.60
2022-10-17T09:06:04.815Z,0.70
2022-10-17T09:08:47.504Z,0.60
2022-10-17T09:11:27.711Z,0.90
2022-10-17T09:13:57.570Z,1.10
2022-10-17T09:16:27.483Z,0.75
2022-10-17T09:19:06.645Z,0.90
2022-10-17T09:21:44.857Z,0.63
2022-10-17T09:24:21.067Z,0.70
2022-10-17T09:26:51.195Z,0.88
2022-10-17T09:29:31.019Z,0.70
2022-10-17T09:32:15.490Z,0.60
2022-10-17T09:34:46.496Z,0.93
2022-10-17T09:37:18.130Z,0.65
2022-10-17T09:39:48.588Z,0.65
2022-10-17T09:42:23.867Z,0.50
2022-10-17T09:45:18.018Z,0.55
2022-10-17T09:47:58.522Z,0.70
2022-10-17T09:50:32.211Z,0.60
2022-10-17T09:53:10.229Z,0.65
2022-10-17T09:55:50.572Z,0.70
2022-10-17T09:58:20.501Z,0.70
2022-10-17T10:00:51.556Z,0.60
2022-10-17T10:03:26.240Z,0.60
2022-10-17T10:06:04.991Z,0.70
2022-10-17T10:08:39.303Z,0.60
2022-10-17T10:11:13.882Z,0.73
2022-10-17T10:13:44.292Z,0.93
2022-10-17T10:16:19.528Z,0.70
2022-10-17T10:18:51.177Z,0.97
2022-10-17T10:21:25.706Z,1.60
2022-10-17T10:24:14.911Z,0.93
2022-10-17T10:26:49.829Z,0.85
2022-10-17T10:29:30.685Z,0.70
2022-10-17T10:32:11.152Z,0.88
2022-10-17T10:34:45.868Z,1.00
2022-10-17T10:37:21.884Z,0.80
2022-10-17T10:39:59.696Z,2.15
2022-10-17T10:42:32.520Z,2.80
2022-10-17T10:45:09.449Z,1.48
2022-10-17T10:48:04.900Z,2.97
2022-10-17T10:50:44.365Z,3.17
2022-10-17T10:53:31.685Z,1.48
2022-10-17T10:56:10.785Z,1.20
2022-10-17T11:01:43.772Z,0.95
2022-10-17T11:04:22.544Z,0.80
2022-10-17T11:06:55.124Z,0.80
2022-10-17T11:09:30.101Z,0.70
2022-10-17T11:12:13.230Z,0.90
2022-10-17T11:14:43.128Z,1.00
2022-10-17T11:17:39.208Z,0.80
2022-10-17T11:20:12.684Z,0.90
2022-10-17T11:22:47.322Z,0.70
2022-10-17T11:25:35.605Z,0.75
2022-10-17T11:28:26.310Z,0.80
2022-10-17T11:30:57.454Z,1.10
2022-10-17T11:33:45.798Z,1.63
2022-10-17T11:36:16.962Z,0.98
2022-10-17T11:39:00.031Z,0.75
2022-10-17T11:41:35.355Z,1.17
2022-10-17T11:44:15.417Z,1.08
2022-10-17T11:46:45.900Z,1.10
2022-10-17T11:49:21.470Z,1.00
2022-10-17T11:52:02.051Z,1.00
2022-10-17T11:54:32.769Z,1.10
2022-10-17T11:57:14.101Z,1.00
2022-10-17T14:21:58.771Z,1.40
2022-10-17T14:24:33.189Z,1.40
2022-10-17T14:27:03.344Z,1.75
2022-10-17T14:29:34.615Z,1.65
2022-10-17T14:32:06.514Z,1.20
2022-10-17T14:34:38.093Z,1.48
2022-10-17T14:37:15.720Z,1.13
2022-10-17T14:39:45.610Z,1.10
2022-10-17T14:42:25.336Z,1.30
2022-10-17T14:44:56.754Z,1.75
2022-10-17T14:47:43.175Z,1.30
2022-10-17T14:50:14.230Z,1.50
2022-10-17T14:52:44.765Z,1.00
2022-10-17T14:55:25.138Z,1.00
2022-10-17T14:57:55.049Z,1.08
2022-10-17T15:00:26.013Z,1.10
2022-10-17T15:02:57.245Z,1.02
2022-10-17T15:05:27.520Z,1.05
2022-10-17T15:07:57.410Z,1.30
2022-10-17T15:10:38.418Z,1.05
2022-10-17T15:15:58.346Z,1.30
2022-10-17T15:18:29.473Z,1.00
2022-10-17T16:32:59.184Z,1.85
2022-10-17T16:35:34.790Z,1.58
2022-10-17T16:38:08.553Z,1.42
2022-10-17T16:40:43.518Z,1.40
2022-10-17T16:43:17.266Z,1.30
2022-10-17T16:45:47.240Z,1.60
2022-10-17T16:48:20.649Z,1.40
2022-10-17T16:50:50.737Z,1.55
2022-10-17T16:53:20.857Z,1.40
2022-10-17T16:56:01.624Z,1.88
2022-10-17T16:58:34.041Z,1.70
2022-10-17T17:01:08.071Z,1.60
2022-10-17T17:03:39.731Z,1.50
2022-10-17T17:06:11.942Z,1.52
2022-10-17T17:08:42.187Z,1.67
2022-10-17T17:11:15.548Z,1.55
2022-10-17T17:13:45.644Z,1.80
2022-10-17T17:16:23.652Z,1.42
2022-10-17T17:18:57.532Z,1.73
2022-10-17T17:21:30.404Z,1.45
2022-10-17T17:24:02.014Z,1.70
2022-10-17T17:26:34.151Z,1.90
2022-10-17T17:29:04.163Z,1.52
2022-10-17T17:31:34.984Z,1.40
2022-10-17T17:34:05.904Z,1.45
2022-10-17T17:36:36.866Z,1.90
2022-10-17T17:39:08.972Z,1.52
2022-10-17T17:41:38.954Z,1.58
2022-10-17T17:44:11.223Z,1.33
2022-10-17T17:46:45.171Z,1.65
2022-10-17T17:49:15.347Z,2.00
2022-10-17T17:51:48.021Z,1.52
2022-10-17T17:54:18.220Z,1.60
2022-10-17T17:56:48.328Z,1.55
2022-10-17T17:59:18.645Z,1.75
2022-10-17T20:08:48.410Z,1.92
2022-10-17T20:11:21.991Z,1.48
2022-10-17T20:13:52.599Z,1.75
2022-10-17T20:16:26.891Z,2.10
2022-10-17T20:18:58.191Z,1.60
2022-10-17T20:21:33.072Z,1.65
2022-10-17T20:24:03.021Z,1.50
2022-10-17T20:26:38.131Z,1.65
2022-10-17T20:29:12.394Z,1.70
2022-10-17T20:31:43.010Z,2.00
2022-10-17T20:34:15.275Z,1.70
2022-10-17T20:36:45.714Z,1.92
2022-10-17T20:39:16.849Z,1.52
2022-10-17T20:41:47.414Z,2.03
2022-10-17T20:44:17.386Z,1.65
2022-10-17T20:47:01.267Z,1.70
2022-10-17T20:49:32.454Z,1.42
2022-10-17T20:52:03.019Z,1.55
2022-10-17T20:54:33.511Z,1.35
2022-10-17T20:57:04.910Z,1.42
2022-10-17T20:59:37.206Z,2.17
2022-10-17T21:02:07.965Z,1.48
2022-10-17T21:04:46.752Z,1.50
2022-10-17T21:07:17.392Z,1.40
2022-10-17T21:16:21.411Z,1.70
2022-10-17T21:18:51.310Z,1.70
2022-10-17T21:21:21.195Z,1.67
2022-10-17T21:23:53.068Z,1.33
2022-10-17T21:26:23.044Z,1.30
2022-10-17T21:28:54.541Z,1.50
2022-10-17T21:31:29.154Z,1.75
2022-10-17T21:34:03.381Z,2.15
2022-10-17T21:36:33.274Z,1.60
2022-10-17T21:39:03.235Z,1.58
2022-10-17T21:41:33.954Z,1.42
2022-10-17T21:44:08.319Z,1.50
2022-10-17T21:46:38.364Z,1.48
2022-10-17T21:49:08.280Z,1.50
2022-10-17T21:51:39.206Z,1.17
2022-10-17T21:54:09.229Z,1.25
2022-10-17T21:56:39.424Z,1.40
2022-10-17T21:59:09.625Z,1.20
2022-10-17T22:01:41.054Z,1.50
2022-10-17T22:04:13.639Z,1.20
2022-10-17T22:06:44.188Z,1.40
2022-10-17T22:09:18.563Z,1.35
2022-10-17T22:11:49.670Z,1.52
